Terminal Aerodrome Forecast
Issued by NWS Charleston, SC

Home | Current Version | Previous Version | Text Only | Print | Product List | Glossary On
Versions: 1 2 3 4 5 6 7 8 9 10 11 12 13 14 15 16 17 18 19 20 21
113
FTUS42 KCHS 221035 AAC
TAFCHS
TAF AMD
KCHS 221035Z 2211/2306 22005KT 5SM SHRA BR VCTS FEW008 SCT015CB
      OVC025 WS015/23040KT
     FM221500 20015G25KT P6SM VCSH SCT015 BKN030
     FM222300 18018G28KT P6SM VCSH SCT025 BKN035=

USA.gov is the U.S. government's official web portal to all federal, state and local government web resources and services.